Time;durP1;ratioP1;P1;durP2;ratioP2;P2;SDS_P1;SDS_P2;PMS_P1;PMS_P2;Temp;Humidity;BMP_temperature;BMP_pressure;BME280_temperature;BME280_humidity;BME280_pressure;Samples;Min_cycle;Max_cycle;Signal;HPM_P1;HPM_P2
2022/03/15 00:00:06;;;;;;;2.55;1.50;;;;;;;1.51;100.00;94001.00;2096688;28;20099;-81
2022/03/15 00:01:07;;;;;;;3.42;1.73;;;;;;;1.52;100.00;93997.25;2093889;28;20123;-82
2022/03/15 00:02:08;;;;;;;5.57;2.22;;;;;;;1.51;100.00;93994.97;2089961;28;20104;-81
2022/03/15 00:03:09;;;;;;;5.15;2.10;;;;;;;1.49;100.00;93994.50;2089510;28;20108;-82
2022/03/15 00:04:11;;;;;;;3.53;1.88;;;;;;;1.42;100.00;94002.25;2097847;28;20506;-81
2022/03/15 00:05:12;;;;;;;4.18;1.75;;;;;;;1.43;100.00;94001.91;2099572;28;20077;-83
2022/03/15 00:06:13;;;;;;;7.82;1.70;;;;;;;1.49;100.00;94007.69;2102252;28;20046;-82
2022/03/15 00:07:15;;;;;;;3.53;2.08;;;;;;;1.50;100.00;94004.75;2110291;28;20141;-81
2022/03/15 00:08:19;;;;;;;6.50;2.20;;;;;;;1.54;100.00;94001.41;2101685;28;20052;-81
2022/03/15 00:09:20;;;;;;;4.53;2.03;;;;;;;1.56;100.00;93996.59;2104849;28;20020;-83
2022/03/15 00:10:22;;;;;;;4.65;1.83;;;;;;;1.49;100.00;94008.47;2105226;28;20440;-81
2022/03/15 00:11:23;;;;;;;3.80;1.77;;;;;;;1.54;100.00;93998.78;2107124;28;20027;-82
2022/03/15 00:12:24;;;;;;;3.03;1.48;;;;;;;1.56;100.00;94001.84;2104870;28;20158;-81
2022/03/15 00:13:28;;;;;;;4.10;2.13;;;;;;;1.54;100.00;93996.13;2093759;28;20159;-82
2022/03/15 00:14:29;;;;;;;3.85;1.98;;;;;;;1.55;100.00;94002.97;2099982;28;20597;-81
2022/03/15 00:15:32;;;;;;;2.97;1.77;;;;;;;1.55;100.00;93997.69;2089342;28;20491;-81
2022/03/15 00:16:34;;;;;;;4.47;2.13;;;;;;;1.49;100.00;93994.50;2100459;28;20016;-81
2022/03/15 00:17:36;;;;;;;3.88;1.63;;;;;;;1.58;100.00;93989.09;2097847;28;20154;-81
2022/03/15 00:18:37;;;;;;;3.88;1.63;;;;;;;1.64;100.00;93990.41;2091057;28;20028;-82
2022/03/15 00:19:39;;;;;;;4.60;1.85;;;;;;;1.54;100.00;94001.41;2092424;28;20108;-82
2022/03/15 00:20:40;;;;;;;3.00;1.70;;;;;;;1.55;100.00;93992.44;2097467;28;20043;-81
2022/03/15 00:21:42;;;;;;;3.05;1.90;;;;;;;1.64;100.00;93985.13;2087189;28;20017;-82
2022/03/15 00:22:45;;;;;;;8.38;2.13;;;;;;;1.59;100.00;93988.03;2095976;28;20078;-83
2022/03/15 00:23:46;;;;;;;2.97;1.80;;;;;;;1.59;100.00;93988.03;2093788;28;20020;-82
2022/03/15 00:24:46;;;;;;;3.85;2.10;;;;;;;1.70;100.00;93978.50;2097373;28;20021;-82
2022/03/15 00:25:47;;;;;;;4.70;1.80;;;;;;;1.61;100.00;93985.81;2097497;28;20117;-82
2022/03/15 00:26:48;;;;;;;4.60;1.85;;;;;;;1.67;100.00;93987.09;2105558;28;20106;-83
2022/03/15 00:27:51;;;;;;;4.63;1.90;;;;;;;1.63;100.00;93984.38;2103995;28;20016;-83
2022/03/15 00:28:52;;;;;;;3.92;1.70;;;;;;;1.59;100.00;93977.47;2096956;28;20024;-82
2022/03/15 00:29:53;;;;;;;4.57;2.08;;;;;;;1.58;100.00;93983.84;2096681;28;20043;-82
2022/03/15 00:30:54;;;;;;;4.32;1.70;;;;;;;1.59;100.00;93980.13;2097607;28;20016;-81
2022/03/15 00:31:55;;;;;;;2.83;1.48;;;;;;;1.58;100.00;93982.00;2089555;28;20013;-80
2022/03/15 00:32:56;;;;;;;3.83;1.92;;;;;;;1.69;100.00;93977.75;2089410;28;20474;-82
2022/03/15 00:33:57;;;;;;;2.35;1.90;;;;;;;1.64;100.00;93980.63;2106068;28;20031;-82
2022/03/15 00:34:58;;;;;;;4.00;1.80;;;;;;;1.87;100.00;93978.19;2120781;27;20030;-81
2022/03/15 00:35:59;;;;;;;5.82;1.80;;;;;;;1.79;100.00;93970.44;2101634;28;20095;-82
2022/03/15 00:37:00;;;;;;;5.55;2.13;;;;;;;1.80;100.00;93978.03;2095816;28;20021;-83
2022/03/15 00:38:01;;;;;;;4.15;1.85;;;;;;;1.68;100.00;93968.31;2097556;28;20063;-82
2022/03/15 00:39:03;;;;;;;3.60;1.92;;;;;;;1.67;100.00;93973.94;2096877;28;20021;-82
2022/03/15 00:40:05;;;;;;;5.15;1.83;;;;;;;1.54;100.00;93970.59;2099831;28;20031;-82
2022/03/15 00:41:06;;;;;;;4.55;1.98;;;;;;;1.55;100.00;93966.09;2089554;28;20103;-83
2022/03/15 00:42:08;;;;;;;3.67;2.05;;;;;;;1.65;100.00;93971.63;2095638;28;20079;-83
2022/03/15 00:43:09;;;;;;;2.47;1.83;;;;;;;1.69;100.00;93964.56;2097796;28;20032;-82
2022/03/15 00:44:10;;;;;;;2.38;1.88;;;;;;;1.61;100.00;93968.13;2097514;28;20029;-82
2022/03/15 00:45:11;;;;;;;4.90;2.05;;;;;;;1.63;100.00;93963.28;2111726;28;20016;-82
2022/03/15 00:46:12;;;;;;;4.95;2.08;;;;;;;1.58;100.00;93958.28;2103516;28;20031;-81
2022/03/15 00:47:14;;;;;;;4.82;1.65;;;;;;;1.62;100.00;93966.25;2089615;28;20054;-81
2022/03/15 00:48:15;;;;;;;5.85;2.33;;;;;;;1.63;100.00;93962.53;2086721;28;20021;-81
2022/03/15 00:49:16;;;;;;;3.10;1.70;;;;;;;1.67;100.00;93963.38;2095502;28;20028;-81
2022/03/15 00:50:17;;;;;;;5.72;2.10;;;;;;;1.77;100.00;93961.00;2097661;28;20477;-82
2022/03/15 00:51:18;;;;;;;4.97;2.08;;;;;;;1.69;100.00;93959.28;2086717;28;20036;-80
2022/03/15 00:52:19;;;;;;;3.00;1.70;;;;;;;1.58;100.00;93954.84;2087122;28;20540;-83
2022/03/15 00:53:20;;;;;;;4.32;1.63;;;;;;;1.59;100.00;93949.25;2099641;28;20058;-82
2022/03/15 00:54:21;;;;;;;5.47;2.22;;;;;;;1.71;100.00;93945.78;2105036;28;20055;-82
2022/03/15 00:55:22;;;;;;;7.65;1.98;;;;;;;1.77;100.00;93942.56;2101359;28;20023;-80
2022/03/15 00:56:23;;;;;;;3.70;1.80;;;;;;;1.76;100.00;93942.91;2092018;28;20068;-81
2022/03/15 00:57:24;;;;;;;4.75;1.85;;;;;;;1.70;100.00;93944.25;2097418;28;20146;-83
2022/03/15 00:58:25;;;;;;;4.80;2.30;;;;;;;1.63;100.00;93946.72;2097544;28;20484;-81
2022/03/15 00:59:26;;;;;;;2.38;1.67;;;;;;;1.62;100.00;93947.81;2113741;28;20022;-82
2022/03/15 01:00:29;;;;;;;6.88;2.00;;;;;;;1.72;100.00;93947.31;2099706;28;20047;-83
2022/03/15 01:01:30;;;;;;;3.45;1.70;;;;;;;1.79;100.00;93955.38;2087413;28;20099;-82
2022/03/15 01:02:39;;;;;;;4.60;1.88;;;;;;;1.71;100.00;93946.56;2090889;28;20486;-83
2022/03/15 01:03:40;;;;;;;4.30;1.85;;;;;;;1.67;100.00;93947.56;2097758;28;20024;-81
2022/03/15 01:04:41;;;;;;;5.57;1.98;;;;;;;1.65;100.00;93947.91;2088865;28;20013;-83
2022/03/15 01:05:42;;;;;;;3.30;1.58;;;;;;;1.85;100.00;93950.66;2090940;28;20020;-83
2022/03/15 01:06:43;;;;;;;5.50;2.00;;;;;;;1.72;100.00;93953.34;2094851;28;20144;-81
2022/03/15 01:07:44;;;;;;;3.28;1.67;;;;;;;1.58;100.00;93950.38;2086758;28;20049;-80
2022/03/15 01:08:45;;;;;;;4.13;1.90;;;;;;;1.58;100.00;93947.72;2089050;28;20485;-80
2022/03/15 01:09:46;;;;;;;4.43;2.10;;;;;;;1.61;100.00;93949.69;2089143;28;20386;-82
2022/03/15 01:10:47;;;;;;;5.03;1.80;;;;;;;1.61;100.00;93948.91;2086748;28;20077;-80
2022/03/15 01:11:47;;;;;;;4.15;1.73;;;;;;;1.59;100.00;93946.63;2085590;28;20076;-81
2022/03/15 01:12:49;;;;;;;5.20;2.10;;;;;;;1.58;100.00;93946.94;2090683;28;20032;-81
2022/03/15 01:13:50;;;;;;;3.75;1.83;;;;;;;1.61;100.00;93957.59;2086982;28;20816;-81
2022/03/15 01:14:51;;;;;;;7.68;2.13;;;;;;;1.62;100.00;93959.09;2097206;28;20020;-81
2022/03/15 01:15:53;;;;;;;4.20;1.90;;;;;;;1.58;100.00;93965.38;2087639;28;20104;-82
2022/03/15 01:16:55;;;;;;;4.68;2.10;;;;;;;1.62;100.00;93964.38;2097658;28;20020;-81
2022/03/15 01:17:56;;;;;;;3.47;1.85;;;;;;;1.76;100.00;93964.75;2097878;28;20055;-82
2022/03/15 01:18:57;;;;;;;6.28;2.15;;;;;;;1.80;100.00;93956.16;2097346;28;20481;-81
2022/03/15 01:19:58;;;;;;;3.70;1.98;;;;;;;1.76;100.00;93950.81;2097400;28;20469;-82
2022/03/15 01:20:59;;;;;;;4.50;2.13;;;;;;;1.69;100.00;93954.03;2086677;28;20032;-81
2022/03/15 01:22:01;;;;;;;4.53;1.98;;;;;;;1.70;100.00;93954.78;2086924;28;20490;-81
2022/03/15 01:23:02;;;;;;;7.10;2.30;;;;;;;1.66;100.00;93944.16;2093366;28;20028;-81
2022/03/15 01:24:07;;;;;;;4.55;1.80;;;;;;;1.67;100.00;93944.94;2107448;28;20523;-82
2022/03/15 01:25:08;;;;;;;5.55;1.90;;;;;;;1.62;100.00;93945.94;2104378;28;20069;-82
2022/03/15 01:26:09;;;;;;;5.55;1.95;;;;;;;1.62;100.00;93942.53;2087141;28;20022;-80
2022/03/15 01:27:11;;;;;;;3.33;2.00;;;;;;;1.63;100.00;93955.38;2088114;28;20024;-82
2022/03/15 01:28:14;;;;;;;4.40;2.03;;;;;;;1.64;100.00;93948.25;2091602;28;20028;-82
2022/03/15 01:29:16;;;;;;;5.28;2.40;;;;;;;1.58;100.00;93945.09;2089608;28;20358;-81
2022/03/15 01:30:17;;;;;;;3.47;1.80;;;;;;;1.57;100.00;93950.69;2097341;28;20081;-83
2022/03/15 01:31:18;;;;;;;6.25;2.10;;;;;;;1.55;100.00;93953.66;2095503;28;20055;-81
2022/03/15 01:32:19;;;;;;;5.53;2.08;;;;;;;1.61;100.00;93949.69;2097213;28;20485;-81
2022/03/15 01:33:21;;;;;;;3.88;2.10;;;;;;;1.67;100.00;93942.31;2105659;28;20024;-82
2022/03/15 01:34:22;;;;;;;3.80;2.00;;;;;;;1.64;100.00;93951.63;2097120;28;20105;-81
2022/03/15 01:35:23;;;;;;;6.65;2.17;;;;;;;1.63;100.00;93950.13;2098615;28;20808;-82
2022/03/15 01:36:24;;;;;;;7.13;2.20;;;;;;;1.65;100.00;93955.03;2091675;28;20032;-82
2022/03/15 01:37:25;;;;;;;2.70;2.08;;;;;;;1.62;100.00;93961.75;2100255;28;20016;-81
2022/03/15 01:38:26;;;;;;;2.72;1.73;;;;;;;1.51;100.00;93956.22;2104787;28;20020;-83
2022/03/15 01:39:27;;;;;;;2.83;1.77;;;;;;;1.61;100.00;93960.22;2105173;28;20040;-81
2022/03/15 01:40:29;;;;;;;4.75;2.13;;;;;;;1.75;100.00;93954.53;2102670;28;20028;-81
2022/03/15 01:41:35;;;;;;;5.75;2.35;;;;;;;1.68;100.00;93951.75;2095220;28;20050;-80
2022/03/15 01:42:36;;;;;;;4.72;1.85;;;;;;;1.66;100.00;93951.28;2094791;28;20017;-80
2022/03/15 01:43:46;;;;;;;3.90;1.70;;;;;;;1.66;100.00;93953.94;2095268;28;20405;-83
2022/03/15 01:44:49;;;;;;;2.65;1.67;;;;;;;1.63;100.00;93960.66;2096793;28;20024;-81
2022/03/15 01:45:50;;;;;;;7.93;1.75;;;;;;;1.56;100.00;93963.09;2108770;28;20165;-82
2022/03/15 01:46:51;;;;;;;3.78;2.00;;;;;;;1.57;100.00;93955.97;2109927;28;20094;-82
2022/03/15 01:47:52;;;;;;;4.38;1.60;;;;;;;1.58;100.00;93945.09;2105086;28;20016;-80
2022/03/15 01:48:53;;;;;;;3.55;1.77;;;;;;;1.68;100.00;93951.75;2095099;28;20017;-81
2022/03/15 01:49:54;;;;;;;3.85;2.03;;;;;;;1.66;100.00;93943.38;2105386;28;20496;-80
2022/03/15 01:50:55;;;;;;;4.30;1.77;;;;;;;1.64;100.00;93948.25;2099375;28;20412;-82
2022/03/15 01:51:56;;;;;;;5.07;2.00;;;;;;;1.67;100.00;93942.31;2092746;28;20020;-82
2022/03/15 01:52:57;;;;;;;3.90;2.10;;;;;;;1.68;100.00;93938.56;2090777;28;20016;-80
2022/03/15 01:53:59;;;;;;;1.80;1.45;;;;;;;1.67;100.00;93944.94;2099306;28;20025;-81
2022/03/15 01:55:00;;;;;;;5.15;1.70;;;;;;;1.63;100.00;93946.72;2097116;28;20378;-80
2022/03/15 01:56:01;;;;;;;4.78;1.73;;;;;;;1.65;100.00;93945.25;2095009;28;20017;-82
2022/03/15 01:57:03;;;;;;;5.10;1.90;;;;;;;1.55;100.00;93945.00;2097193;28;20020;-81
2022/03/15 01:58:04;;;;;;;7.18;2.13;;;;;;;1.55;100.00;93935.22;2088436;28;20036;-82
2022/03/15 01:59:05;;;;;;;4.57;1.95;;;;;;;1.62;100.00;93950.44;2095884;28;20389;-82
2022/03/15 02:00:06;;;;;;;4.05;1.58;;;;;;;1.56;100.00;93936.75;2104982;28;20016;-80
2022/03/15 02:01:07;;;;;;;2.45;1.70;;;;;;;1.60;100.00;93942.88;2090762;28;20027;-80
2022/03/15 02:02:09;;;;;;;4.65;1.77;;;;;;;1.64;100.00;93942.97;2094300;28;20474;-82
2022/03/15 02:03:10;;;;;;;4.22;2.00;;;;;;;1.64;100.00;93938.47;2111196;28;20020;-82
2022/03/15 02:04:12;;;;;;;2.60;1.67;;;;;;;1.68;100.00;93944.59;2112900;28;20024;-82
2022/03/15 02:05:13;;;;;;;5.60;1.88;;;;;;;1.67;100.00;93940.44;2096499;28;20418;-83
2022/03/15 02:06:14;;;;;;;2.80;1.77;;;;;;;1.59;100.00;93940.59;2088799;28;20028;-82
2022/03/15 02:07:15;;;;;;;4.30;1.80;;;;;;;1.51;100.00;93940.41;2088467;28;20075;-82
2022/03/15 02:08:17;;;;;;;2.00;1.33;;;;;;;1.46;100.00;93942.53;2086753;28;20801;-81
2022/03/15 02:09:18;;;;;;;3.78;1.50;;;;;;;1.48;100.00;93940.31;2095421;28;20286;-81
2022/03/15 02:11:59;;;;;;;;;;;;;;;1.42;100.00;93944.31;2136996;27;20123;-82
2022/03/15 02:13:00;;;;;;;4.22;1.60;;;;;;;1.35;100.00;93944.88;2117134;28;19912;-82
2022/03/15 02:14:03;;;;;;;3.85;1.50;;;;;;;1.62;100.00;93945.16;2101903;28;20449;-82
2022/03/15 02:15:06;;;;;;;3.45;1.45;;;;;;;1.56;100.00;93946.53;2098176;28;20032;-82
2022/03/15 02:16:07;;;;;;;4.03;1.77;;;;;;;1.50;100.00;93940.75;2097253;28;20020;-82
2022/03/15 02:17:08;;;;;;;3.58;1.60;;;;;;;1.42;100.00;93944.31;2099974;28;20050;-81
2022/03/15 02:18:09;;;;;;;3.35;1.58;;;;;;;1.36;100.00;93949.06;2107635;28;20453;-82
2022/03/15 02:19:10;;;;;;;3.22;1.45;;;;;;;1.37;100.00;93939.28;2108531;28;20458;-81
2022/03/15 02:20:12;;;;;;;3.88;1.65;;;;;;;1.32;100.00;93947.41;2103473;28;20030;-82
2022/03/15 02:21:13;;;;;;;3.92;1.50;;;;;;;1.20;100.00;93942.97;2105942;28;20114;-82
2022/03/15 02:22:14;;;;;;;4.95;1.80;;;;;;;1.17;100.00;93954.16;2119141;27;20028;-81
2022/03/15 02:23:16;;;;;;;2.83;1.50;;;;;;;1.15;100.00;93953.75;2119154;28;20019;-81
2022/03/15 02:24:18;;;;;;;3.33;1.65;;;;;;;1.19;100.00;93946.72;2103848;28;20028;-82
2022/03/15 02:25:23;;;;;;;5.10;1.80;;;;;;;1.20;100.00;93935.84;2100696;28;20032;-81
2022/03/15 02:26:24;;;;;;;4.15;1.90;;;;;;;1.21;100.00;93934.72;2105232;28;20016;-82
2022/03/15 02:27:25;;;;;;;3.95;1.70;;;;;;;1.33;100.00;93935.78;2098820;28;20429;-82
2022/03/15 02:28:26;;;;;;;3.45;1.83;;;;;;;1.33;100.00;93935.78;2105459;28;20020;-81
2022/03/15 02:29:27;;;;;;;5.65;1.80;;;;;;;1.30;100.00;93939.84;2122423;27;20035;-81
2022/03/15 02:30:30;;;;;;;3.00;1.90;;;;;;;1.29;100.00;93948.84;2114621;27;20107;-81
2022/03/15 02:31:32;;;;;;;2.47;1.70;;;;;;;1.23;100.00;93950.22;2100461;28;20074;-81
2022/03/15 02:32:34;;;;;;;5.40;1.42;;;;;;;1.25;100.00;93951.38;2119070;27;20121;-81
2022/03/15 02:33:35;;;;;;;3.35;1.50;;;;;;;1.28;100.00;93944.69;2133652;27;20042;-82
2022/03/15 02:34:36;;;;;;;3.92;1.70;;;;;;;1.36;100.00;93943.78;2105898;28;20495;-82
2022/03/15 02:35:36;;;;;;;3.47;1.58;;;;;;;1.31;100.00;93944.00;2112265;28;20495;-81
2022/03/15 02:36:38;;;;;;;3.72;1.60;;;;;;;1.28;100.00;93941.31;2127732;27;20058;-81
2022/03/15 02:37:39;;;;;;;4.07;1.65;;;;;;;1.28;100.00;93931.53;2123053;27;20467;-81
2022/03/15 02:38:39;;;;;;;6.65;1.58;;;;;;;1.30;100.00;93931.94;2114398;28;20024;-82
2022/03/15 02:39:41;;;;;;;2.88;1.58;;;;;;;1.33;100.00;93928.66;2113516;27;20051;-82
2022/03/15 02:40:42;;;;;;;4.30;2.00;;;;;;;1.32;100.00;93935.03;2121578;27;20519;-82
2022/03/15 02:41:43;;;;;;;3.28;1.52;;;;;;;1.34;100.00;93932.81;2097658;28;20381;-82
2022/03/15 02:42:44;;;;;;;5.03;2.47;;;;;;;1.59;100.00;93930.06;2101334;28;20066;-80
2022/03/15 02:43:45;;;;;;;4.45;1.73;;;;;;;1.63;100.00;93931.69;2099802;28;20012;-82
2022/03/15 02:44:46;;;;;;;4.25;1.92;;;;;;;1.57;100.00;93926.97;2099718;28;20027;-81
2022/03/15 02:45:55;;;;;;;5.20;2.00;;;;;;;1.56;100.00;93922.81;2105541;28;20031;-82
2022/03/15 02:46:56;;;;;;;4.45;1.83;;;;;;;1.57;100.00;93933.00;2105069;28;20485;-81
2022/03/15 02:47:57;;;;;;;4.35;1.52;;;;;;;1.50;100.00;93930.22;2103540;28;20020;-81
2022/03/15 02:48:58;;;;;;;3.65;1.63;;;;;;;1.38;100.00;93917.09;2099858;28;20032;-82
2022/03/15 02:49:59;;;;;;;4.03;1.70;;;;;;;1.36;100.00;93920.09;2116523;27;20016;-81
2022/03/15 02:51:08;;;;;;;3.70;1.92;;;;;;;1.33;100.00;93922.63;2118928;27;20773;-81
2022/03/15 02:52:10;;;;;;;6.43;1.77;;;;;;;1.33;100.00;93920.75;2127025;27;20019;-81
2022/03/15 02:53:11;;;;;;;3.03;1.73;;;;;;;1.40;100.00;93925.41;2117210;28;20107;-81
2022/03/15 02:54:13;;;;;;;3.80;1.80;;;;;;;1.33;100.00;93923.38;2112114;27;20386;-81
2022/03/15 02:55:18;;;;;;;2.92;1.67;;;;;;;1.42;100.00;93925.88;2118642;28;20031;-81
2022/03/15 02:56:20;;;;;;;5.88;1.65;;;;;;;1.48;100.00;93932.41;2111474;27;20020;-81
2022/03/15 02:57:23;;;;;;;1.85;1.60;;;;;;;1.45;100.00;93930.47;2112859;27;20020;-82
2022/03/15 02:58:24;;;;;;;4.20;2.05;;;;;;;1.36;100.00;93924.56;2109167;28;20049;-80
2022/03/15 02:59:27;;;;;;;2.42;1.40;;;;;;;1.31;100.00;93917.66;2103505;28;20111;-81
2022/03/15 03:00:28;;;;;;;5.47;2.13;;;;;;;1.37;100.00;93920.84;2112198;28;20775;-80
2022/03/15 03:01:29;;;;;;;6.90;1.70;;;;;;;1.54;100.00;93925.00;2113781;27;20017;-81
2022/03/15 03:02:32;;;;;;;3.63;2.20;;;;;;;1.51;100.00;93916.69;2108459;28;20028;-81
2022/03/15 03:03:34;;;;;;;5.10;2.00;;;;;;;1.50;100.00;93909.13;2119073;27;20205;-81
2022/03/15 03:04:35;;;;;;;4.03;1.70;;;;;;;1.50;100.00;93917.03;2119008;27;20109;-82
2022/03/15 03:05:36;;;;;;;6.15;2.08;;;;;;;1.47;100.00;93915.84;2120951;27;20020;-81
2022/03/15 03:06:41;;;;;;;5.25;2.03;;;;;;;1.49;100.00;93921.56;2120692;27;20121;-82
2022/03/15 03:07:45;;;;;;;4.35;1.88;;;;;;;1.48;100.00;93919.22;2119075;27;20027;-80
2022/03/15 03:08:46;;;;;;;7.25;2.05;;;;;;;1.49;100.00;93918.91;2119450;27;20023;-81
2022/03/15 03:09:47;;;;;;;4.15;1.83;;;;;;;1.66;100.00;93920.44;2122256;27;20105;-81
2022/03/15 03:10:48;;;;;;;4.25;1.73;;;;;;;1.63;100.00;93918.50;2112114;28;20115;-81
2022/03/15 03:11:49;;;;;;;4.40;1.67;;;;;;;1.60;100.00;93921.81;2109527;28;20039;-82
2022/03/15 03:12:50;;;;;;;4.20;1.90;;;;;;;1.58;100.00;93920.59;2120526;27;20056;-81
2022/03/15 03:13:55;;;;;;;4.72;2.40;;;;;;;1.56;100.00;93917.56;2105434;28;20024;-82
2022/03/15 03:14:57;;;;;;;4.38;1.90;;;;;;;1.52;100.00;93920.09;2103152;27;20052;-81
2022/03/15 03:16:00;;;;;;;3.97;2.05;;;;;;;1.52;100.00;93920.09;2115140;27;20050;-81
2022/03/15 03:17:01;;;;;;;3.45;1.70;;;;;;;1.45;100.00;93923.31;2120425;27;20019;-82
2022/03/15 03:18:01;;;;;;;4.75;1.90;;;;;;;1.57;100.00;93916.44;2112088;28;20661;-82
2022/03/15 03:19:07;;;;;;;8.20;2.00;;;;;;;1.80;100.00;93919.25;2118479;27;20027;-80
2022/03/15 03:20:13;;;;;;;4.50;2.00;;;;;;;2.01;100.00;93927.66;2128317;27;20032;-80
2022/03/15 03:21:14;;;;;;;4.53;1.90;;;;;;;1.90;100.00;93922.16;2112837;28;20114;-82
2022/03/15 03:22:15;;;;;;;4.10;1.70;;;;;;;1.77;100.00;93924.13;2117888;27;20034;-81
2022/03/15 03:23:17;;;;;;;5.78;2.00;;;;;;;1.68;100.00;93922.75;2115850;27;20053;-81
2022/03/15 03:24:24;;;;;;;4.65;1.92;;;;;;;1.60;100.00;93921.81;2104617;28;20477;-81
2022/03/15 03:25:26;;;;;;;2.17;1.60;;;;;;;1.62;100.00;93921.44;2108540;28;20012;-82
2022/03/15 03:26:27;;;;;;;6.03;2.10;;;;;;;1.57;100.00;93911.94;2108039;28;20062;-81
2022/03/15 03:27:28;;;;;;;3.88;1.95;;;;;;;1.69;100.00;93919.00;2116451;27;20404;-82
2022/03/15 03:28:36;;;;;;;3.90;1.92;;;;;;;1.81;100.00;93907.63;2117058;27;20348;-81
2022/03/15 03:29:37;;;;;;;4.85;2.22;;;;;;;1.93;100.00;93918.06;2108937;28;20027;-81
2022/03/15 03:30:41;;;;;;;3.17;2.10;;;;;;;1.93;100.00;93912.78;2116501;27;20032;-81
2022/03/15 03:31:43;;;;;;;3.83;1.90;;;;;;;1.91;100.00;93909.75;2106976;28;20020;-81
2022/03/15 03:32:45;;;;;;;5.68;2.05;;;;;;;1.86;100.00;93916.03;2095946;28;20713;-81
2022/03/15 03:33:46;;;;;;;3.25;2.00;;;;;;;1.79;100.00;93909.81;2106670;28;20484;-81
2022/03/15 03:34:47;;;;;;;3.35;1.92;;;;;;;1.72;100.00;93908.56;2106389;28;20110;-81
2022/03/15 03:35:51;;;;;;;5.72;2.10;;;;;;;1.69;100.00;93908.47;2097653;28;20804;-80
2022/03/15 03:36:52;;;;;;;2.58;1.60;;;;;;;1.67;100.00;93914.09;2110655;27;20098;-81
2022/03/15 03:38:05;;;;;;;4.70;1.90;;;;;;;1.67;100.00;93915.97;2113456;28;20031;-81
2022/03/15 03:39:07;;;;;;;3.47;1.92;;;;;;;1.64;100.00;93914.00;2109863;28;20495;-81
2022/03/15 03:40:08;;;;;;;2.97;1.92;;;;;;;1.64;100.00;93916.63;2095809;28;20148;-81
2022/03/15 03:41:09;;;;;;;4.80;1.88;;;;;;;1.59;100.00;93920.28;2103184;28;20016;-81
2022/03/15 03:42:11;;;;;;;6.68;2.03;;;;;;;1.60;100.00;93921.03;2106675;28;20027;-81
2022/03/15 03:43:12;;;;;;;2.92;1.88;;;;;;;1.57;100.00;93922.47;2112904;28;20023;-81
2022/03/15 03:44:13;;;;;;;4.80;2.10;;;;;;;1.55;100.00;93919.41;2104377;28;20563;-81
2022/03/15 03:45:14;;;;;;;3.30;1.80;;;;;;;1.62;100.00;93918.81;2107782;28;20123;-80
2022/03/15 03:46:16;;;;;;;3.90;1.67;;;;;;;1.69;100.00;93914.50;2107908;28;20084;-81
2022/03/15 03:47:17;;;;;;;4.28;2.20;;;;;;;1.64;100.00;93911.34;2099970;28;20465;-81
2022/03/15 03:48:19;;;;;;;3.50;1.75;;;;;;;1.64;100.00;93916.63;2107442;27;20609;-81
2022/03/15 03:49:20;;;;;;;4.80;1.90;;;;;;;1.60;100.00;93918.41;2106570;27;20516;-81
2022/03/15 03:50:21;;;;;;;4.30;1.90;;;;;;;1.58;100.00;93917.97;2106486;28;20035;-80
2022/03/15 03:51:22;;;;;;;4.72;2.03;;;;;;;1.64;100.00;93921.91;2107740;28;20028;-80
2022/03/15 03:52:23;;;;;;;6.60;1.90;;;;;;;1.64;100.00;93914.75;2106165;28;20810;-82
2022/03/15 03:53:24;;;;;;;2.90;1.90;;;;;;;1.65;100.00;93924.19;2115823;27;20125;-81
2022/03/15 03:54:26;;;;;;;3.22;1.95;;;;;;;1.59;100.00;93916.88;2109689;28;20024;-81
2022/03/15 03:55:27;;;;;;;5.70;2.05;;;;;;;1.60;100.00;93919.16;2101303;27;20109;-81
2022/03/15 03:56:28;;;;;;;4.78;2.30;;;;;;;1.63;100.00;93923.78;2101149;28;20016;-81
2022/03/15 03:57:29;;;;;;;6.50;2.20;;;;;;;1.66;100.00;93919.69;2126906;27;20068;-82
2022/03/15 03:58:44;;;;;;;3.75;2.00;;;;;;;1.70;100.00;93916.03;2126100;27;20015;-81
2022/03/15 03:59:45;;;;;;;4.78;2.00;;;;;;;1.66;100.00;93924.94;2116606;27;20026;-80
2022/03/15 04:00:46;;;;;;;5.30;2.10;;;;;;;1.63;100.00;93923.78;2114558;27;20016;-81
2022/03/15 04:01:47;;;;;;;4.97;1.95;;;;;;;1.63;100.00;93921.13;2105980;28;20027;-81
2022/03/15 04:02:48;;;;;;;4.72;1.92;;;;;;;1.62;100.00;93919.59;2095705;28;20016;-81
2022/03/15 04:03:49;;;;;;;4.70;2.35;;;;;;;1.64;100.00;93932.44;2099358;28;20101;-81
2022/03/15 04:04:51;;;;;;;7.20;2.40;;;;;;;1.61;100.00;93922.56;2109852;28;20023;-80
2022/03/15 04:05:52;;;;;;;5.43;2.08;;;;;;;1.68;100.00;93920.88;2114563;28;20114;-78
2022/03/15 04:06:55;;;;;;;3.53;2.20;;;;;;;1.73;100.00;93927.75;2097835;28;20016;-81
2022/03/15 04:07:55;;;;;;;3.00;2.10;;;;;;;1.83;100.00;93918.59;2105253;28;20019;-81
2022/03/15 04:08:58;;;;;;;3.35;2.05;;;;;;;1.78;100.00;93916.97;2116531;27;20015;-81
2022/03/15 04:09:59;;;;;;;4.70;2.50;;;;;;;1.73;100.00;93915.34;2099249;27;20469;-81
2022/03/15 04:11:00;;;;;;;7.35;2.47;;;;;;;1.72;100.00;93916.47;2099958;28;20054;-81
2022/03/15 04:12:02;;;;;;;6.22;2.20;;;;;;;1.75;100.00;93915.75;2115747;27;20015;-81
2022/03/15 04:13:05;;;;;;;3.55;2.22;;;;;;;1.72;100.00;93913.06;2108093;27;20500;-81
2022/03/15 04:14:12;;;;;;;5.38;2.42;;;;;;;1.68;100.00;93920.88;2096221;28;20443;-81
2022/03/15 04:15:13;;;;;;;3.90;2.00;;;;;;;1.66;100.00;93919.69;2108976;28;20110;-80
2022/03/15 04:16:14;;;;;;;5.85;2.33;;;;;;;1.66;100.00;93912.53;2109922;28;20031;-81
2022/03/15 04:17:15;;;;;;;3.83;2.15;;;;;;;1.66;100.00;93911.78;2117226;27;20022;-81
2022/03/15 04:18:16;;;;;;;4.75;3.00;;;;;;;1.62;100.00;93916.19;2110427;28;20341;-81
2022/03/15 04:19:20;;;;;;;3.92;2.13;;;;;;;1.71;100.00;93922.06;2095633;28;20028;-81
2022/03/15 04:20:21;;;;;;;8.13;2.45;;;;;;;1.88;100.00;93913.81;2093047;28;20055;-81
2022/03/15 04:21:25;;;;;;;7.82;2.40;;;;;;;1.98;100.00;93910.69;2101711;28;20032;-81
2022/03/15 04:22:26;;;;;;;3.38;2.75;;;;;;;1.82;100.00;93914.44;2100252;28;20024;-81
2022/03/15 04:23:27;;;;;;;4.38;2.10;;;;;;;1.73;100.00;93914.59;2112876;27;20031;-81
2022/03/15 04:24:28;;;;;;;5.43;2.60;;;;;;;1.71;100.00;93916.78;2115875;27;20028;-82
2022/03/15 04:25:29;;;;;;;4.97;2.05;;;;;;;1.75;100.00;93918.41;2095653;28;20479;-81
2022/03/15 04:26:30;;;;;;;6.03;2.72;;;;;;;1.70;100.00;93926.56;2100011;28;20027;-82
2022/03/15 04:27:31;;;;;;;6.28;2.25;;;;;;;1.72;100.00;93913.06;2107760;28;20119;-81
2022/03/15 04:28:32;;;;;;;5.47;2.40;;;;;;;1.73;100.00;93923.25;2107966;28;20053;-82
2022/03/15 04:29:33;;;;;;;6.45;2.55;;;;;;;1.72;100.00;93913.81;2105850;28;20865;-80
2022/03/15 04:30:34;;;;;;;3.72;2.45;;;;;;;1.74;100.00;93914.25;2105595;28;20119;-81
2022/03/15 04:31:35;;;;;;;3.30;2.15;;;;;;;1.82;100.00;93920.47;2112333;28;20019;-81
2022/03/15 04:32:36;;;;;;;7.30;2.53;;;;;;;1.96;100.00;93923.44;2098529;28;20020;-81
2022/03/15 04:33:37;;;;;;;4.75;2.25;;;;;;;2.08;100.00;93916.53;2099411;28;20055;-81
2022/03/15 04:34:38;;;;;;;8.25;2.65;;;;;;;2.12;100.00;93912.13;2107341;28;20535;-82
2022/03/15 04:35:39;;;;;;;5.53;2.30;;;;;;;1.98;100.00;93908.03;2112942;27;20112;-82
2022/03/15 04:36:41;;;;;;;6.78;2.85;;;;;;;1.87;100.00;93914.16;2119975;27;20039;-81
2022/03/15 04:37:42;;;;;;;4.90;2.45;;;;;;;1.76;100.00;93916.56;2097572;28;20023;-82
2022/03/15 04:38:44;;;;;;;3.70;2.40;;;;;;;1.77;100.00;93915.44;2099130;27;20016;-82
2022/03/15 04:39:51;;;;;;;4.40;2.13;;;;;;;1.73;100.00;93917.22;2097687;28;20036;-81
2022/03/15 04:40:52;;;;;;;4.50;2.35;;;;;;;1.82;100.00;93917.81;2107076;27;20146;-80
2022/03/15 04:41:54;;;;;;;6.53;2.40;;;;;;;1.69;100.00;93911.09;2118116;27;20016;-80
2022/03/15 04:42:55;;;;;;;7.55;2.35;;;;;;;1.92;100.00;93906.75;2106031;28;20392;-81
2022/03/15 04:43:56;;;;;;;2.95;2.03;;;;;;;1.83;100.00;93908.81;2098441;28;20052;-82
2022/03/15 04:44:57;;;;;;;3.38;2.20;;;;;;;1.73;100.00;93909.31;2116155;27;20035;-81
2022/03/15 04:45:59;;;;;;;5.57;2.10;;;;;;;1.69;100.00;93897.94;2113575;27;20024;-81
2022/03/15 04:47:00;;;;;;;4.80;2.00;;;;;;;1.66;100.00;93903.88;2105762;28;20161;-82
2022/03/15 04:48:01;;;;;;;4.40;2.20;;;;;;;1.62;100.00;93903.00;2099269;28;20170;-80
2022/03/15 04:49:02;;;;;;;5.10;2.15;;;;;;;1.70;100.00;93913.38;2104936;28;20023;-81
2022/03/15 04:50:04;;;;;;;4.50;2.05;;;;;;;1.87;100.00;93908.91;2107685;28;20111;-82
2022/03/15 04:51:05;;;;;;;4.75;1.83;;;;;;;2.21;100.00;93907.44;2118394;27;20026;-81
2022/03/15 04:52:07;;;;;;;4.22;2.20;;;;;;;2.13;100.00;93903.84;2114282;27;20016;-81